Time;durP1;ratioP1;P1;durP2;ratioP2;P2;SDS_P1;SDS_P2;PMS_P1;PMS_P2;Temp;Humidity;BMP_temperature;BMP_pressure;BME280_temperature;BME280_humidity;BME280_pressure;Samples;Min_cycle;Max_cycle;Signal;HPM_P1;HPM_P2
2021/08/30 00:02:22;;;;;;;;;3.00;3.00;;;;;-147.91;100.00;58652.34;5039571;28;45609;-82
2021/08/30 00:04:47;;;;;;;;;3.00;3.00;;;;;-147.91;100.00;58652.34;5046271;28;46160;-82
2021/08/30 00:07:13;;;;;;;;;3.00;3.00;;;;;-147.91;100.00;58652.34;5043529;28;45392;-82
2021/08/30 00:09:39;;;;;;;;;4.50;3.00;;;;;-147.91;100.00;58652.34;5043563;28;45618;-82
2021/08/30 00:12:04;;;;;;;;;6.50;3.50;;;;;-147.91;100.00;58652.34;5041484;28;46704;-82
2021/08/30 00:14:31;;;;;;;;;2.75;2.75;;;;;-147.91;100.00;58652.34;5042796;28;46077;-83
2021/08/30 00:16:59;;;;;;;;;3.75;3.00;;;;;-147.91;100.00;58652.34;5043198;28;45614;-87
2021/08/30 00:19:25;;;;;;;;;4.75;4.75;;;;;-147.91;100.00;58652.34;5050432;28;46999;-82
2021/08/30 00:21:51;;;;;;;;;2.25;2.25;;;;;-147.91;100.00;58652.34;5038828;28;47151;-82
2021/08/30 00:24:22;;;;;;;;;5.00;3.00;;;;;-147.91;100.00;58652.34;5041713;28;45702;-83
2021/08/30 00:26:48;;;;;;;;;4.25;2.75;;;;;-147.91;100.00;58652.34;5037942;28;45610;-83
2021/08/30 00:29:13;;;;;;;;;4.00;2.00;;;;;-147.91;100.00;58652.34;5046356;28;45741;-83
2021/08/30 00:31:38;;;;;;;;;3.75;3.75;;;;;-147.91;100.00;58652.34;5041130;28;46491;-84
2021/08/30 00:34:04;;;;;;;;;4.50;3.00;;;;;-147.91;100.00;58652.34;5040366;28;45328;-83
2021/08/30 00:36:29;;;;;;;;;6.50;5.75;;;;;-147.91;100.00;58652.34;5045487;28;45579;-82
2021/08/30 00:38:55;;;;;;;;;2.75;2.75;;;;;-147.91;100.00;58652.34;5047342;28;46764;-82
2021/08/30 00:41:23;;;;;;;;;6.00;4.00;;;;;-147.91;100.00;58652.34;5045375;28;47066;-82
2021/08/30 00:43:48;;;;;;;;;5.50;5.00;;;;;-147.91;100.00;58652.34;5035421;28;45676;-83
2021/08/30 00:46:17;;;;;;;;;6.00;4.25;;;;;-147.91;100.00;58652.34;5039964;28;45622;-83
2021/08/30 00:48:47;;;;;;;;;5.00;4.00;;;;;-147.91;100.00;58652.34;5037441;28;45504;-82
2021/08/30 00:51:18;;;;;;;;;4.50;4.50;;;;;-147.91;100.00;58652.34;5039217;28;47486;-83
2021/08/30 00:53:50;;;;;;;;;8.00;6.00;;;;;-147.91;100.00;58652.34;5043407;28;45936;-83
2021/08/30 00:56:18;;;;;;;;;6.25;6.25;;;;;-147.91;100.00;58652.34;5039017;28;45557;-83
2021/08/30 00:58:45;;;;;;;;;5.00;5.00;;;;;-147.91;100.00;58652.34;5040266;28;45604;-83
2021/08/30 01:01:14;;;;;;;;;6.75;5.00;;;;;-147.91;100.00;58652.34;5040466;28;45699;-83
2021/08/30 01:03:40;;;;;;;;;5.75;5.75;;;;;-147.91;100.00;58652.34;5054541;28;45651;-84
2021/08/30 01:06:15;;;;;;;;;6.75;5.50;;;;;-147.91;100.00;58652.34;5046748;28;45537;-83
2021/08/30 01:08:46;;;;;;;;;6.25;5.00;;;;;-147.91;100.00;58652.34;5037634;28;46090;-83
2021/08/30 01:11:20;;;;;;;;;5.75;5.75;;;;;-147.91;100.00;58652.34;5038122;28;46317;-83
2021/08/30 01:13:53;;;;;;;;;8.00;7.00;;;;;-147.91;100.00;58652.34;5047021;28;45743;-82
2021/08/30 01:16:22;;;;;;;;;9.25;6.50;;;;;-147.91;100.00;58652.34;5058144;27;45695;-82
2021/08/30 01:18:51;;;;;;;;;7.00;5.25;;;;;-147.91;100.00;58652.34;5041983;28;45618;-82
2021/08/30 01:21:38;;;;;;;;;8.00;7.50;;;;;-147.91;100.00;58652.34;5036732;28;46486;-82
2021/08/30 01:24:09;;;;;;;;;8.75;7.00;;;;;-147.91;100.00;58652.34;5039430;28;45920;-82
2021/08/30 01:26:40;;;;;;;;;9.75;7.75;;;;;-147.91;100.00;58652.34;5042521;28;45546;-82
2021/08/30 01:29:26;;;;;;;;;8.50;6.75;;;;;-147.91;100.00;58652.34;5037258;28;45655;-83
2021/08/30 01:32:21;;;;;;;;;11.00;6.50;;;;;-147.91;100.00;58652.34;5045884;28;46106;-82
2021/08/30 01:34:47;;;;;;;;;14.50;9.50;;;;;-147.91;100.00;58652.34;5048578;28;45901;-83
2021/08/30 01:37:13;;;;;;;;;15.75;11.00;;;;;-147.91;100.00;58652.34;5041672;28;45608;-82
2021/08/30 01:39:41;;;;;;;;;9.50;9.00;;;;;-147.91;100.00;58652.34;5042883;28;45633;-82
2021/08/30 01:42:07;;;;;;;;;12.75;9.50;;;;;-147.91;100.00;58652.34;5046595;28;45643;-82
2021/08/30 01:44:33;;;;;;;;;13.50;10.00;;;;;-147.91;100.00;58652.34;5042563;28;45765;-83
2021/08/30 01:46:59;;;;;;;;;11.75;9.75;;;;;-147.91;100.00;58652.34;5040870;28;46078;-82
2021/08/30 01:49:26;;;;;;;;;12.25;9.75;;;;;-147.91;100.00;58652.34;5038769;28;45535;-83
2021/08/30 01:51:52;;;;;;;;;14.25;13.25;;;;;-147.91;100.00;58652.34;5033245;28;46342;-83
2021/08/30 01:54:20;;;;;;;;;13.50;10.50;;;;;-147.91;100.00;58652.34;5046203;28;45835;-83
2021/08/30 01:56:49;;;;;;;;;9.50;8.25;;;;;-147.91;100.00;58652.34;5043709;28;45648;-84
2021/08/30 02:02:00;;;;;;;;;13.50;10.75;;;;;-147.91;100.00;58652.34;5035119;28;45899;-84
2021/08/30 02:04:26;;;;;;;;;10.00;10.00;;;;;-147.91;100.00;58652.34;5042750;28;45506;-84
2021/08/30 02:06:52;;;;;;;;;14.50;10.75;;;;;-147.91;100.00;58652.34;5036846;28;46153;-84
2021/08/30 02:09:17;;;;;;;;;10.75;7.75;;;;;-147.91;100.00;58652.34;5041488;28;45555;-84
2021/08/30 02:11:43;;;;;;;;;12.75;8.75;;;;;-147.91;100.00;58652.34;5043345;28;46187;-84
2021/08/30 02:14:08;;;;;;;;;18.25;10.00;;;;;-147.91;100.00;58652.34;5040450;28;45906;-85
2021/08/30 02:16:35;;;;;;;;;11.25;9.75;;;;;-147.91;100.00;58652.34;5043891;28;45905;-86
2021/08/30 02:19:19;;;;;;;;;10.50;8.00;;;;;-147.91;100.00;58652.34;5038169;28;45727;-85
2021/08/30 02:21:55;;;;;;;;;9.50;6.00;;;;;-147.91;100.00;58652.34;5038404;28;46351;-86
2021/08/30 02:24:45;;;;;;;;;12.00;8.25;;;;;-147.91;100.00;58652.34;5045448;28;45471;-85
2021/08/30 02:27:57;;;;;;;;;13.75;9.00;;;;;-147.91;100.00;58652.34;5039287;28;45664;-85
2021/08/30 02:30:29;;;;;;;;;11.00;8.50;;;;;-147.91;100.00;58652.34;4960627;28;45869;-85
2021/08/30 02:33:02;;;;;;;;;12.50;8.00;;;;;-147.91;100.00;58652.34;4979111;28;46302;-85
2021/08/30 02:35:30;;;;;;;;;12.00;9.25;;;;;-147.91;100.00;58652.34;4977055;28;45540;-86
2021/08/30 02:40:36;;;;;;;;;11.00;9.50;;;;;-147.91;100.00;58652.34;5352588;22;45605;-79
2021/08/30 02:43:03;;;;;;;;;12.00;10.00;;;;;-147.91;100.00;58652.34;5027409;28;46092;-79
2021/08/30 02:45:30;;;;;;;;;11.75;9.00;;;;;-147.91;100.00;58652.34;5035756;28;45585;-79
2021/08/30 02:48:01;;;;;;;;;13.25;9.25;;;;;-147.91;100.00;58652.34;5034726;28;45797;-79
2021/08/30 02:50:28;;;;;;;;;11.50;8.50;;;;;-147.91;100.00;58652.34;5028174;28;46149;-79
2021/08/30 02:52:57;;;;;;;;;10.50;8.75;;;;;-147.91;100.00;58652.34;5032813;28;46143;-79
2021/08/30 02:55:23;;;;;;;;;12.25;9.50;;;;;-147.91;100.00;58652.34;5038072;28;45548;-79
2021/08/30 02:57:49;;;;;;;;;12.00;8.00;;;;;-147.91;100.00;58652.34;5034316;28;45759;-80
2021/08/30 03:00:16;;;;;;;;;11.50;8.50;;;;;-147.91;100.00;58652.34;5038415;28;45799;-79
2021/08/30 03:02:42;;;;;;;;;12.50;9.25;;;;;-147.91;100.00;58652.34;5030459;28;45738;-79
2021/08/30 03:05:08;;;;;;;;;18.75;11.00;;;;;-147.91;100.00;58652.34;5028776;28;46006;-81
2021/08/30 03:07:36;;;;;;;;;12.00;9.75;;;;;-147.91;100.00;58652.34;5037082;28;45531;-80
2021/08/30 03:10:01;;;;;;;;;15.00;10.00;;;;;-147.91;100.00;58652.34;5037292;28;46106;-79
2021/08/30 03:12:32;;;;;;;;;8.50;7.25;;;;;-147.91;100.00;58652.34;5042488;28;50769;-79
2021/08/30 03:15:02;;;;;;;;;10.25;9.00;;;;;-147.91;100.00;58652.34;5046857;28;45600;-80
2021/08/30 03:17:31;;;;;;;;;10.00;9.75;;;;;-147.91;100.00;58652.34;5042254;28;45580;-79
2021/08/30 03:19:57;;;;;;;;;10.50;10.50;;;;;-147.91;100.00;58652.34;5045350;28;45670;-79
2021/08/30 03:22:25;;;;;;;;;11.00;11.00;;;;;-147.91;100.00;58652.34;5042378;28;45612;-79
2021/08/30 03:24:52;;;;;;;;;11.75;10.50;;;;;-147.91;100.00;58652.34;5045053;28;45666;-79
2021/08/30 03:27:19;;;;;;;;;10.25;9.00;;;;;-147.91;100.00;58652.34;5043195;28;45570;-79
2021/08/30 03:29:45;;;;;;;;;11.50;11.00;;;;;-147.91;100.00;58652.34;5043370;28;45591;-80
2021/08/30 03:32:13;;;;;;;;;9.25;9.25;;;;;-147.91;100.00;58652.34;5040823;28;45645;-79
2021/08/30 03:34:39;;;;;;;;;11.75;10.50;;;;;-147.91;100.00;58652.34;5047923;28;45875;-80
2021/08/30 03:37:06;;;;;;;;;9.00;9.00;;;;;-147.91;100.00;58652.34;5038981;28;46350;-79
2021/08/30 03:39:32;;;;;;;;;10.75;10.00;;;;;-147.91;100.00;58652.34;5044636;28;45574;-80
2021/08/30 03:41:59;;;;;;;;;11.00;8.25;;;;;-147.91;100.00;58652.34;5045751;28;46418;-79
2021/08/30 03:44:26;;;;;;;;;10.50;10.50;;;;;-147.91;100.00;58652.34;5043658;28;46262;-78
2021/08/30 03:46:52;;;;;;;;;11.50;9.75;;;;;-147.91;100.00;58652.34;5041127;28;45366;-79
2021/08/30 03:49:19;;;;;;;;;9.75;8.00;;;;;-147.91;100.00;58652.34;5036157;28;45547;-79
2021/08/30 03:51:47;;;;;;;;;16.00;10.00;;;;;-147.91;100.00;58652.34;5040075;28;46114;-80
2021/08/30 03:54:12;;;;;;;;;13.25;9.25;;;;;-147.91;100.00;58652.34;5043816;28;45555;-79
2021/08/30 03:56:39;;;;;;;;;11.75;9.75;;;;;-147.91;100.00;58652.34;5040785;28;45632;-79
2021/08/30 03:59:05;;;;;;;;;10.25;10.25;;;;;-147.91;100.00;58652.34;5040940;28;45429;-81
2021/08/30 04:01:32;;;;;;;;;12.00;10.00;;;;;-147.91;100.00;58652.34;5047142;28;45572;-79
2021/08/30 04:04:00;;;;;;;;;12.75;10.25;;;;;-147.91;100.00;58652.34;5044731;28;45681;-79
2021/08/30 04:06:30;;;;;;;;;13.00;11.75;;;;;-147.91;100.00;58652.34;5051974;28;45571;-80
2021/08/30 04:08:56;;;;;;;;;15.00;11.50;;;;;-147.91;100.00;58652.34;5041748;28;45463;-80
2021/08/30 04:11:23;;;;;;;;;10.75;9.50;;;;;-147.91;100.00;58652.34;5042827;28;47451;-79
2021/08/30 04:13:49;;;;;;;;;12.25;12.00;;;;;-147.91;100.00;58652.34;5041367;28;45783;-79
2021/08/30 04:16:14;;;;;;;;;16.00;11.50;;;;;-147.91;100.00;58652.34;5044227;28;45662;-77
2021/08/30 04:18:39;;;;;;;;;15.25;13.00;;;;;-147.91;100.00;58652.34;5044042;28;45487;-78
2021/08/30 04:21:05;;;;;;;;;13.50;10.75;;;;;-147.91;100.00;58652.34;5045103;28;46044;-77
2021/08/30 04:23:30;;;;;;;;;14.75;11.25;;;;;-147.91;100.00;58652.34;5043427;28;55539;-77
2021/08/30 04:25:56;;;;;;;;;12.75;12.25;;;;;-147.91;100.00;58652.34;5046622;28;45480;-77
2021/08/30 04:28:22;;;;;;;;;14.50;11.25;;;;;-147.91;100.00;58652.34;5040000;28;46023;-77
2021/08/30 04:30:48;;;;;;;;;13.75;11.50;;;;;-147.91;100.00;58652.34;5041123;28;45911;-77
2021/08/30 04:33:14;;;;;;;;;15.75;12.00;;;;;-147.91;100.00;58652.34;5044740;28;46088;-77
2021/08/30 04:35:40;;;;;;;;;11.00;10.25;;;;;-147.91;100.00;58652.34;5041535;28;46228;-77
2021/08/30 04:38:05;;;;;;;;;14.75;13.00;;;;;-147.91;100.00;58652.34;5033964;28;46227;-78
2021/08/30 04:40:31;;;;;;;;;16.00;13.00;;;;;-147.91;100.00;58652.34;5041005;28;46206;-78
2021/08/30 04:42:57;;;;;;;;;17.50;13.75;;;;;-147.91;100.00;58652.34;5039110;28;46301;-78
2021/08/30 04:45:22;;;;;;;;;14.00;10.50;;;;;-147.91;100.00;58652.34;5036691;28;45451;-77
2021/08/30 04:47:48;;;;;;;;;14.25;13.00;;;;;-147.91;100.00;58652.34;5041042;28;45560;-77
2021/08/30 04:50:13;;;;;;;;;12.50;12.00;;;;;-147.91;100.00;58652.34;5041873;28;45558;-77
2021/08/30 04:52:39;;;;;;;;;19.75;14.50;;;;;-147.91;100.00;58652.34;5047726;28;49921;-77
2021/08/30 04:55:05;;;;;;;;;12.25;12.25;;;;;-147.91;100.00;58652.34;5046198;28;45604;-78
2021/08/30 04:57:30;;;;;;;;;19.75;14.00;;;;;-147.91;100.00;58652.34;5038965;28;45713;-77
2021/08/30 04:59:55;;;;;;;;;13.00;12.50;;;;;-147.91;100.00;58652.34;5040876;28;45369;-77
2021/08/30 05:02:21;;;;;;;;;18.75;14.00;;;;;-147.91;100.00;58652.34;5041072;28;45628;-78
2021/08/30 05:04:46;;;;;;;;;16.50;12.50;;;;;-147.91;100.00;58652.34;5046822;28;47339;-78
2021/08/30 05:07:11;;;;;;;;;19.75;17.00;;;;;-147.91;100.00;58652.34;5039310;28;45590;-77
2021/08/30 05:09:37;;;;;;;;;14.00;12.25;;;;;-147.91;100.00;58652.34;5044105;28;46062;-77
2021/08/30 05:12:02;;;;;;;;;18.00;12.50;;;;;-147.91;100.00;58652.34;5044328;28;45873;-77
2021/08/30 05:14:28;;;;;;;;;19.50;16.75;;;;;-147.91;100.00;58652.34;5044587;28;45782;-77
2021/08/30 05:16:53;;;;;;;;;21.25;14.50;;;;;-147.91;100.00;58652.34;5038936;28;45578;-79
2021/08/30 05:19:19;;;;;;;;;18.25;14.75;;;;;-147.91;100.00;58652.34;5043179;28;45448;-79
2021/08/30 05:21:44;;;;;;;;;19.50;16.50;;;;;-147.91;100.00;58652.34;5039206;28;45493;-79
2021/08/30 05:24:10;;;;;;;;;19.50;15.75;;;;;-147.91;100.00;58652.34;5045505;28;45582;-79
2021/08/30 05:26:36;;;;;;;;;21.25;18.00;;;;;-147.91;100.00;58652.34;5039511;28;45434;-79
2021/08/30 05:29:21;;;;;;;;;18.50;17.50;;;;;-147.91;100.00;58652.34;5159731;22;45517;-95
2021/08/30 05:31:46;;;;;;;;;22.00;17.75;;;;;-147.91;100.00;58652.34;5029222;28;45837;-95
2021/08/30 05:36:44;;;;;;;;;26.00;20.75;;;;;-147.91;100.00;58652.34;5028754;28;46475;-79
2021/08/30 05:39:10;;;;;;;;;22.75;20.75;;;;;-147.91;100.00;58652.34;5030113;28;47723;-81
2021/08/30 05:41:35;;;;;;;;;24.50;18.75;;;;;-147.91;100.00;58652.34;5028775;28;45770;-81
2021/08/30 05:44:01;;;;;;;;;21.25;19.25;;;;;-147.91;100.00;58652.34;5036813;28;45830;-82
2021/08/30 05:46:26;;;;;;;;;26.50;22.00;;;;;-147.91;100.00;58652.34;5032310;28;45515;-81
2021/08/30 05:48:51;;;;;;;;;26.00;18.75;;;;;-147.91;100.00;58652.34;5033687;28;45582;-79
2021/08/30 05:51:17;;;;;;;;;23.25;19.50;;;;;-147.91;100.00;58652.34;5033714;28;45444;-80
2021/08/30 05:53:42;;;;;;;;;26.00;18.00;;;;;-147.91;100.00;58652.34;5031570;28;45987;-79
2021/08/30 05:56:08;;;;;;;;;22.75;18.50;;;;;-147.91;100.00;58652.34;5030346;28;45670;-79
2021/08/30 05:58:34;;;;;;;;;24.75;20.00;;;;;-147.91;100.00;58652.34;5034563;28;45620;-80
2021/08/30 06:01:01;;;;;;;;;24.25;21.50;;;;;-147.91;100.00;58652.34;5031683;28;45807;-79
2021/08/30 06:03:27;;;;;;;;;28.75;22.00;;;;;-147.91;100.00;58652.34;5030937;28;45457;-79
2021/08/30 06:05:52;;;;;;;;;23.50;18.50;;;;;-147.91;100.00;58652.34;5038171;28;45596;-80
2021/08/30 06:08:17;;;;;;;;;28.50;20.00;;;;;-147.91;100.00;58652.34;5039446;28;45474;-79
2021/08/30 06:10:43;;;;;;;;;25.25;20.50;;;;;-147.91;100.00;58652.34;5044221;28;45567;-83
2021/08/30 06:13:08;;;;;;;;;23.25;22.75;;;;;-147.91;100.00;58652.34;5040373;28;45597;-82
2021/08/30 06:15:34;;;;;;;;;24.50;20.25;;;;;-147.91;100.00;58652.34;5033539;28;45773;-81
2021/08/30 06:17:59;;;;;;;;;33.00;26.50;;;;;-147.91;100.00;58652.34;5039707;28;45669;-82
2021/08/30 06:20:25;;;;;;;;;26.00;22.25;;;;;-147.91;100.00;58652.34;5039608;28;45251;-81
2021/08/30 06:22:50;;;;;;;;;23.75;20.50;;;;;-147.91;100.00;58652.34;5039179;28;45451;-83
2021/08/30 06:25:16;;;;;;;;;25.50;22.75;;;;;-147.91;100.00;58652.34;5040172;28;45705;-81
2021/08/30 06:27:41;;;;;;;;;28.50;22.50;;;;;-147.91;100.00;58652.34;5044332;28;46108;-80
2021/08/30 06:30:07;;;;;;;;;28.25;24.75;;;;;-147.91;100.00;58652.34;5047833;28;47478;-81
2021/08/30 06:32:32;;;;;;;;;29.25;24.25;;;;;-147.91;100.00;58652.34;5043306;28;45506;-80
2021/08/30 06:34:57;;;;;;;;;29.25;24.50;;;;;-147.91;100.00;58652.34;5050945;28;45516;-81
2021/08/30 06:37:23;;;;;;;;;30.00;26.50;;;;;-147.91;100.00;58652.34;5047269;28;47202;-81
2021/08/30 06:39:48;;;;;;;;;28.75;24.50;;;;;-147.91;100.00;58652.34;5047675;28;45618;-81
2021/08/30 06:42:14;;;;;;;;;28.50;23.25;;;;;-147.91;100.00;58652.34;5046984;28;45563;-80
2021/08/30 06:44:39;;;;;;;;;26.25;24.75;;;;;-147.91;100.00;58652.34;5046556;28;45523;-80
2021/08/30 06:47:05;;;;;;;;;28.25;24.50;;;;;-147.91;100.00;58652.34;5042875;28;46167;-80
2021/08/30 06:49:30;;;;;;;;;26.25;26.00;;;;;-147.91;100.00;58652.34;5028061;28;45545;-80
2021/08/30 06:51:56;;;;;;;;;27.25;22.75;;;;;-147.91;100.00;58652.34;5046955;28;45588;-80
2021/08/30 06:54:21;;;;;;;;;32.00;25.75;;;;;-147.91;100.00;58652.34;5048652;28;45373;-80
2021/08/30 06:56:47;;;;;;;;;34.00;26.50;;;;;-147.91;100.00;58652.34;5044371;28;48089;-82
2021/08/30 06:59:12;;;;;;;;;31.50;27.50;;;;;-147.91;100.00;58652.34;5053866;28;45540;-81
2021/08/30 07:01:37;;;;;;;;;28.50;26.00;;;;;-147.91;100.00;58652.34;5044903;28;45538;-80
2021/08/30 07:04:03;;;;;;;;;27.00;21.00;;;;;-147.91;100.00;58652.34;5045022;28;45521;-82
2021/08/30 07:06:28;;;;;;;;;27.75;24.25;;;;;-147.91;100.00;58652.34;5046606;28;45330;-80
2021/08/30 07:08:54;;;;;;;;;27.75;25.00;;;;;-147.91;100.00;58652.34;5047284;28;45652;-80
2021/08/30 07:11:19;;;;;;;;;31.00;23.75;;;;;-147.91;100.00;58652.34;5046703;28;45571;-80
2021/08/30 07:13:44;;;;;;;;;26.00;23.00;;;;;-147.91;100.00;58652.34;5046654;28;45796;-80
2021/08/30 07:16:10;;;;;;;;;27.50;23.25;;;;;-147.91;100.00;58652.34;5048451;28;46295;-80
2021/08/30 07:18:35;;;;;;;;;32.00;27.50;;;;;-147.91;100.00;58652.34;5045024;28;46121;-80
2021/08/30 07:21:00;;;;;;;;;29.25;25.00;;;;;-147.91;100.00;58652.34;5049905;28;46130;-80
2021/08/30 07:23:27;;;;;;;;;25.75;21.25;;;;;-147.91;100.00;58652.34;5043628;28;45547;-80
2021/08/30 07:25:53;;;;;;;;;33.25;26.50;;;;;-147.91;100.00;58652.34;5052299;28;46263;-80
2021/08/30 07:28:19;;;;;;;;;28.25;24.75;;;;;-147.91;100.00;58652.34;5046932;28;45605;-80
2021/08/30 07:30:44;;;;;;;;;26.75;24.50;;;;;-147.91;100.00;58652.34;5049174;28;45752;-79
2021/08/30 07:33:09;;;;;;;;;36.00;21.25;;;;;-147.91;100.00;58652.34;5050516;28;46683;-79
2021/08/30 07:35:35;;;;;;;;;26.50;22.50;;;;;-147.91;100.00;58652.34;5046380;28;46131;-80
2021/08/30 07:40:32;;;;;;;;;26.00;21.50;;;;;-147.91;100.00;58652.34;5049610;28;45302;-94
2021/08/30 07:42:57;;;;;;;;;27.75;21.25;;;;;-147.91;100.00;58652.34;5052125;28;45523;-95
2021/08/30 07:45:29;;;;;;;;;23.50;18.50;;;;;-147.91;100.00;58652.34;5051336;28;46964;-96
2021/08/30 07:47:54;;;;;;;;;25.50;18.75;;;;;-147.91;100.00;58652.34;5046611;28;45533;-94
2021/08/30 07:50:21;;;;;;;;;20.75;18.75;;;;;-147.91;100.00;58652.34;5069505;22;45381;-80
2021/08/30 07:52:46;;;;;;;;;18.00;17.00;;;;;-147.91;100.00;58652.34;5013442;28;45669;-80
2021/08/30 07:55:12;;;;;;;;;21.75;19.25;;;;;-147.91;100.00;58652.34;5014154;28;45728;-80
2021/08/30 07:57:38;;;;;;;;;26.75;17.50;;;;;-147.91;100.00;58652.34;5010521;28;45788;-80
2021/08/30 08:00:04;;;;;;;;;23.00;16.75;;;;;-147.91;100.00;58652.34;5021107;28;45719;-79
2021/08/30 08:02:30;;;;;;;;;21.00;17.25;;;;;-147.91;100.00;58652.34;5014267;28;45774;-80
2021/08/30 08:04:55;;;;;;;;;20.50;18.00;;;;;-147.91;100.00;58652.34;5017363;28;47587;-80
2021/08/30 08:07:21;;;;;;;;;20.75;18.25;;;;;-147.91;100.00;58652.34;5008568;28;45597;-80
2021/08/30 08:09:46;;;;;;;;;18.50;14.25;;;;;-147.91;100.00;58652.34;5021151;28;45517;-79
2021/08/30 08:12:11;;;;;;;;;21.25;17.25;;;;;-147.91;100.00;58652.34;5012906;28;45552;-80
2021/08/30 08:14:37;;;;;;;;;18.25;16.25;;;;;-147.91;100.00;58652.34;5015683;28;46174;-80
2021/08/30 08:17:02;;;;;;;;;21.75;17.50;;;;;-147.91;100.00;58652.34;5018452;28;45580;-79
2021/08/30 08:19:28;;;;;;;;;16.50;15.25;;;;;-147.91;100.00;58652.34;5057536;22;46047;-93
2021/08/30 08:21:55;;;;;;;;;17.25;16.25;;;;;-147.91;100.00;58652.34;5056509;28;45454;-93
2021/08/30 08:24:23;;;;;;;;;19.50;15.50;;;;;-147.91;100.00;58652.34;5055539;28;47092;-92
2021/08/30 08:26:49;;;;;;;;;18.50;17.00;;;;;-147.91;100.00;58652.34;5056603;28;45496;-92
2021/08/30 08:29:14;;;;;;;;;20.25;18.00;;;;;-147.91;100.00;58652.34;5059675;28;45547;-93
2021/08/30 08:31:40;;;;;;;;;19.75;17.75;;;;;-147.91;100.00;58652.34;5059219;28;45433;-96
2021/08/30 08:34:05;;;;;;;;;16.75;14.75;;;;;-147.91;100.00;58652.34;5059745;28;47913;-92
2021/08/30 08:36:32;;;;;;;;;19.25;15.00;;;;;-147.91;100.00;58652.34;5059150;22;46091;-83
2021/08/30 08:38:57;;;;;;;;;18.00;16.75;;;;;-147.91;100.00;58652.34;5032417;28;45583;-83
2021/08/30 08:41:22;;;;;;;;;17.50;14.50;;;;;-147.91;100.00;58652.34;5038355;28;45684;-84
2021/08/30 08:43:54;;;;;;;;;20.25;14.25;;;;;-147.91;100.00;58652.34;5039434;28;47817;-84
2021/08/30 08:46:21;;;;;;;;;15.00;13.00;;;;;-147.91;100.00;58652.34;5051314;27;45627;-84
2021/08/30 08:48:46;;;;;;;;;15.75;14.75;;;;;-147.91;100.00;58652.34;5027893;28;45515;-83
2021/08/30 08:51:13;;;;;;;;;14.25;13.25;;;;;-147.91;100.00;58652.34;5027216;28;45615;-83
2021/08/30 08:53:39;;;;;;;;;17.50;17.50;;;;;-147.91;100.00;58652.34;5046071;28;46351;-83
2021/08/30 08:56:04;;;;;;;;;21.50;15.75;;;;;-147.91;100.00;58652.34;5034776;28;45585;-83
2021/08/30 08:58:30;;;;;;;;;18.75;15.50;;;;;-147.91;100.00;58652.34;5032334;28;46125;-83
2021/08/30 09:01:10;;;;;;;;;18.75;16.00;;;;;-147.91;100.00;58652.34;5033924;28;46216;-83
2021/08/30 09:03:42;;;;;;;;;23.75;18.00;;;;;-147.91;100.00;58652.34;5035406;28;46343;-83
2021/08/30 09:06:08;;;;;;;;;16.50;16.00;;;;;-147.91;100.00;58652.34;5026779;28;46857;-84
2021/08/30 09:08:38;;;;;;;;;17.25;15.50;;;;;-147.91;100.00;58652.34;5038969;28;46259;-82
2021/08/30 09:11:14;;;;;;;;;18.75;15.50;;;;;-147.91;100.00;58652.34;5033061;28;45857;-83
2021/08/30 09:13:52;;;;;;;;;18.00;15.75;;;;;-147.91;100.00;58652.34;5034592;28;45709;-83
2021/08/30 09:16:19;;;;;;;;;22.00;18.75;;;;;-147.91;100.00;58652.34;5035427;28;45540;-83
2021/08/30 09:18:44;;;;;;;;;19.00;17.25;;;;;-147.91;100.00;58652.34;5033867;28;45539;-83
2021/08/30 09:21:11;;;;;;;;;16.50;14.75;;;;;-147.91;100.00;58652.34;5041466;28;46092;-83
2021/08/30 09:23:39;;;;;;;;;18.00;16.75;;;;;-147.91;100.00;58652.34;5038383;28;46016;-84
2021/08/30 09:26:04;;;;;;;;;17.00;16.00;;;;;-147.91;100.00;58652.34;5032879;28;45581;-83
2021/08/30 09:28:35;;;;;;;;;18.50;15.00;;;;;-147.91;100.00;58652.34;5028368;28;45506;-84
2021/08/30 09:31:03;;;;;;;;;20.50;16.00;;;;;-147.91;100.00;58652.34;5038178;28;51594;-83
2021/08/30 09:33:29;;;;;;;;;17.25;14.25;;;;;-147.91;100.00;58652.34;5028465;28;45575;-84
2021/08/30 09:36:04;;;;;;;;;17.75;15.00;;;;;-147.91;100.00;58652.34;5043004;28;45503;-83
2021/08/30 09:38:37;;;;;;;;;16.75;16.75;;;;;-147.91;100.00;58652.34;5035711;28;45578;-83
2021/08/30 09:41:04;;;;;;;;;16.75;13.75;;;;;-147.91;100.00;58652.34;5032075;28;45637;-84
2021/08/30 09:43:29;;;;;;;;;17.75;14.00;;;;;-147.91;100.00;58652.34;5031595;28;45675;-83
2021/08/30 09:46:00;;;;;;;;;14.75;14.00;;;;;-147.91;100.00;58652.34;5032500;28;45881;-83
2021/08/30 09:48:26;;;;;;;;;16.00;14.00;;;;;-147.91;100.00;58652.34;5031111;28;46795;-83
2021/08/30 09:50:51;;;;;;;;;13.25;12.25;;;;;-147.91;100.00;58652.34;5033886;28;45566;-83
2021/08/30 09:53:16;;;;;;;;;14.50;12.25;;;;;-147.91;100.00;58652.34;5036301;28;51595;-83
2021/08/30 09:55:43;;;;;;;;;18.00;14.00;;;;;-147.91;100.00;58652.34;5028070;28;45926;-84
2021/08/30 09:58:13;;;;;;;;;16.50;13.75;;;;;-147.91;100.00;58652.34;5035044;28;47446;-83
2021/08/30 10:00:43;;;;;;;;;15.75;13.75;;;;;-147.91;100.00;58652.34;5035252;28;46223;-84
2021/08/30 10:03:10;;;;;;;;;14.25;12.00;;;;;-147.91;100.00;58652.34;5036928;28;45854;-83
2021/08/30 10:05:37;;;;;;;;;17.75;14.00;;;;;-147.91;100.00;58652.34;5040989;28;45673;-83
2021/08/30 10:08:03;;;;;;;;;12.00;10.00;;;;;-147.91;100.00;58652.34;5032707;28;45631;-84
2021/08/30 10:10:29;;;;;;;;;14.00;11.00;;;;;-147.91;100.00;58652.34;5040405;28;45528;-84
2021/08/30 10:12:55;;;;;;;;;17.25;15.00;;;;;-147.91;100.00;58652.34;5065380;27;47347;-83
2021/08/30 10:15:24;;;;;;;;;21.25;18.50;;;;;-147.91;100.00;58652.34;5035603;28;45741;-84
2021/08/30 10:17:51;;;;;;;;;18.00;15.75;;;;;-147.91;100.00;58652.34;5042434;28;46133;-84
2021/08/30 10:20:20;;;;;;;;;14.25;12.75;;;;;-147.91;100.00;58652.34;5038955;28;45618;-84
2021/08/30 10:23:09;;;;;;;;;18.75;16.25;;;;;-147.91;100.00;58652.34;5036549;28;46571;-83
2021/08/30 10:25:39;;;;;;;;;17.00;13.00;;;;;-147.91;100.00;58652.34;5034176;28;47141;-83
2021/08/30 10:28:10;;;;;;;;;15.00;13.75;;;;;-147.91;100.00;58652.34;5037362;28;45524;-84
2021/08/30 10:30:38;;;;;;;;;15.50;15.50;;;;;-147.91;100.00;58652.34;5035146;28;45644;-84
2021/08/30 10:33:08;;;;;;;;;15.25;15.00;;;;;-147.91;100.00;58652.34;5031927;28;45628;-86
2021/08/30 10:35:38;;;;;;;;;17.25;14.75;;;;;-147.91;100.00;58652.34;5042018;28;45619;-86
2021/08/30 10:38:20;;;;;;;;;18.00;13.50;;;;;-147.91;100.00;58652.34;5038965;28;45582;-85
2021/08/30 10:40:53;;;;;;;;;17.50;13.50;;;;;-147.91;100.00;58652.34;5039125;28;45941;-89
2021/08/30 10:43:21;;;;;;;;;16.00;13.00;;;;;-147.91;100.00;58652.34;5044958;28;45690;-86
2021/08/30 10:45:58;;;;;;;;;18.25;15.00;;;;;-147.91;100.00;58652.34;5041553;28;45413;-85
2021/08/30 10:48:34;;;;;;;;;15.25;14.25;;;;;-147.91;100.00;58652.34;5035108;28;45716;-86
2021/08/30 10:51:00;;;;;;;;;14.75;13.50;;;;;-147.91;100.00;58652.34;5037988;28;46159;-86
2021/08/30 10:53:26;;;;;;;;;14.00;13.00;;;;;-147.91;100.00;58652.34;5048085;28;46174;-86
2021/08/30 10:56:07;;;;;;;;;14.75;13.50;;;;;-147.91;100.00;58652.34;5039749;28;45742;-87
2021/08/30 10:58:33;;;;;;;;;14.00;12.75;;;;;-147.91;100.00;58652.34;5045849;28;45533;-86
2021/08/30 11:01:13;;;;;;;;;14.25;11.75;;;;;-147.91;100.00;58652.34;5048303;28;45500;-87
2021/08/30 11:03:40;;;;;;;;;13.75;13.75;;;;;-147.91;100.00;58652.34;5074779;27;46146;-86
2021/08/30 11:06:15;;;;;;;;;15.00;14.50;;;;;-147.91;100.00;58652.34;5039119;28;45639;-86
2021/08/30 11:08:42;;;;;;;;;13.00;11.25;;;;;-147.91;100.00;58652.34;5079029;22;45602;-93
2021/08/30 11:11:18;;;;;;;;;12.50;11.50;;;;;-147.91;100.00;58652.34;5058918;22;46021;-85